< < Back
Terminal Aerodrome Forecast


Current Version              Previous Versions:   1  2  3  4  5  6  7  8  9  

Terminal Aerodrome Forecast

199
FTUS44 KHUN 011134
TAFHSV
TAF
KHSV 011134Z 0112/0212 14005KT 5SM BR BKN008 OVC200
     FM011300 20005KT P6SM VCSH SCT015 BKN150
      TEMPO 0117/0120 VRB15G25KT 4SM TSRA BKN030CB
     FM012000 27006KT P6SM VCTS BKN050CB
      TEMPO 0120/0124 4SM TSRA BKN030CB
     FM020100 19005KT P6SM VCSH BKN030=



Latest METAR

157
SAUS80 KWBC 011700 CCA
MTRHSV
METAR KHSV 011653Z 20006KT 10SM FEW019 BKN055TCU OVC250 26/21 A3004 RMK
AO2 SLP165 TCU SE T02610211


USA.gov is the U.S. government's official web portal to all federal, state and local government web resources and services.